Time;durP1;ratioP1;P1;durP2;ratioP2;P2;SDS_P1;SDS_P2;PMS_P1;PMS_P2;Temp;Humidity;BMP_temperature;BMP_pressure;BME280_temperature;BME280_humidity;BME280_pressure;Samples;Min_cycle;Max_cycle;Signal;HPM_P1;HPM_P2
2023/09/03 00:01:35;;;;;;;15.95;12.10;;;;;;;18.59;100.00;101046.63;5112762;28;20050;-76
2023/09/03 00:04:00;;;;;;;17.33;11.35;;;;;;;18.45;100.00;101033.25;5113157;28;20456;-78
2023/09/03 00:06:44;;;;;;;19.20;12.82;;;;;;;18.43;100.00;101044.56;5094421;28;20027;-79
2023/09/03 00:09:12;;;;;;;15.82;11.45;;;;;;;18.35;100.00;101039.84;5111800;28;20081;-77
2023/09/03 00:11:43;;;;;;;18.17;13.52;;;;;;;18.28;100.00;101047.72;5113049;28;20043;-78
2023/09/03 00:14:09;;;;;;;18.83;13.45;;;;;;;18.06;100.00;101029.63;5113234;28;20052;-77
2023/09/03 00:16:34;;;;;;;17.50;12.30;;;;;;;17.92;100.00;101025.69;5111598;28;20479;-76
2023/09/03 00:18:59;;;;;;;19.52;13.48;;;;;;;18.08;100.00;101050.91;5094943;28;20050;-77
2023/09/03 00:21:34;;;;;;;18.80;13.52;;;;;;;18.04;100.00;101047.50;5112934;28;20491;-77
2023/09/03 00:24:02;;;;;;;18.25;12.60;;;;;;;18.03;100.00;101039.34;5112378;28;20031;-76
2023/09/03 00:26:28;;;;;;;19.17;13.52;;;;;;;18.02;100.00;101053.03;5112403;28;20023;-77
2023/09/03 00:28:53;;;;;;;17.45;13.00;;;;;;;18.03;100.00;101059.59;5112720;28;20115;-76
2023/09/03 00:31:23;;;;;;;17.63;13.13;;;;;;;18.01;100.00;101054.34;5098161;28;20427;-76
2023/09/03 00:34:07;;;;;;;18.25;12.93;;;;;;;18.05;100.00;101054.84;5115450;28;20019;-76
2023/09/03 00:36:33;;;;;;;17.13;12.80;;;;;;;18.07;100.00;101054.34;5115319;28;20027;-76
2023/09/03 00:39:01;;;;;;;17.63;12.65;;;;;;;18.08;100.00;101056.69;5115888;28;20036;-76
2023/09/03 00:41:27;;;;;;;17.55;13.15;;;;;;;18.11;100.00;101052.75;5116571;27;20061;-77
2023/09/03 00:43:53;;;;;;;16.95;11.73;;;;;;;18.15;100.00;101055.38;5116668;28;20024;-76
2023/09/03 00:46:20;;;;;;;17.08;13.38;;;;;;;18.18;100.00;101060.09;5116455;27;20023;-77
2023/09/03 00:48:46;;;;;;;17.20;12.57;;;;;;;18.17;100.00;101059.31;5116585;28;20034;-76
2023/09/03 00:51:14;;;;;;;17.85;11.82;;;;;;;18.17;100.00;101058.53;5116464;28;20027;-76
2023/09/03 00:53:42;;;;;;;16.42;12.02;;;;;;;18.14;100.00;101062.47;5114622;28;20484;-78
2023/09/03 00:56:18;;;;;;;16.17;12.23;;;;;;;18.12;100.00;101068.81;5098963;28;20127;-76
2023/09/03 00:58:45;;;;;;;16.30;11.75;;;;;;;17.97;100.00;101044.34;5116104;28;20418;-76
2023/09/03 01:01:12;;;;;;;17.15;12.35;;;;;;;18.08;100.00;101065.34;5098621;28;20133;-76
2023/09/03 01:03:39;;;;;;;17.13;11.70;;;;;;;18.05;100.00;101068.53;5098502;28;20035;-76
2023/09/03 01:06:06;;;;;;;15.77;11.95;;;;;;;18.02;100.00;101064.59;5116852;28;20106;-77
2023/09/03 01:08:32;;;;;;;16.02;11.85;;;;;;;18.01;100.00;101057.22;5116971;28;20103;-77
2023/09/03 01:11:30;;;;;;;24.95;13.18;;;;;;;18.00;100.00;101060.63;5098433;28;20123;-77
2023/09/03 01:14:16;;;;;;;16.88;12.25;;;;;;;17.95;100.00;101049.88;5115819;28;20031;-77
2023/09/03 01:17:21;;;;;;;15.15;11.63;;;;;;;17.92;100.00;101059.59;5103921;28;20552;-77
2023/09/03 01:20:05;;;;;;;17.63;13.25;;;;;;;17.88;100.00;101059.88;5114201;28;20023;-77
2023/09/03 01:22:50;;;;;;;16.23;12.63;;;;;;;17.88;100.00;101059.88;5097517;28;20110;-75
2023/09/03 01:25:51;;;;;;;16.10;11.52;;;;;;;17.88;100.00;101056.97;5115328;28;20224;-75
2023/09/03 01:28:41;;;;;;;14.45;12.20;;;;;;;17.83;100.00;101049.84;5115332;28;20035;-76
2023/09/03 01:31:11;;;;;;;16.77;11.45;;;;;;;17.84;100.00;101054.34;5115456;28;20028;-76
2023/09/03 01:34:01;;;;;;;19.85;12.35;;;;;;;17.83;100.00;101046.22;5098174;28;20100;-76
2023/09/03 01:36:40;;;;;;;16.15;11.40;;;;;;;17.81;100.00;101043.84;5115073;28;20032;-76
2023/09/03 01:39:06;;;;;;;15.93;12.20;;;;;;;17.82;100.00;101041.72;5114853;28;20465;-76
2023/09/03 01:41:32;;;;;;;16.92;12.15;;;;;;;17.75;100.00;101040.16;5113005;28;20027;-75
2023/09/03 01:43:58;;;;;;;16.05;12.50;;;;;;;17.77;100.00;101042.53;5114884;28;20024;-75
2023/09/03 01:46:50;;;;;;;17.00;12.20;;;;;;;17.75;100.00;101040.16;5115020;27;20031;-76
2023/09/03 01:49:37;;;;;;;14.77;11.35;;;;;;;17.69;100.00;101050.13;5114094;28;20465;-75
2023/09/03 01:52:21;;;;;;;15.40;11.57;;;;;;;17.66;100.00;101043.31;5115945;28;20427;-77
2023/09/03 01:54:49;;;;;;;16.08;11.40;;;;;;;17.66;100.00;101036.72;5116277;28;20024;-76
2023/09/03 01:57:28;;;;;;;17.45;12.85;;;;;;;17.68;100.00;101046.47;5097782;28;20036;-77
2023/09/03 02:00:13;;;;;;;15.35;11.65;;;;;;;17.70;100.00;101049.59;5114764;28;20392;-77
2023/09/03 02:02:44;;;;;;;18.10;11.85;;;;;;;17.63;100.00;101041.47;5097601;28;20038;-76
2023/09/03 02:05:14;;;;;;;13.60;10.63;;;;;;;17.67;100.00;101044.88;5116043;28;20346;-76
2023/09/03 02:07:40;;;;;;;15.70;12.07;;;;;;;17.53;100.00;101024.91;5114364;28;20027;-76
2023/09/03 02:10:06;;;;;;;16.77;11.20;;;;;;;17.67;100.00;101052.75;5114370;28;20100;-76
2023/09/03 02:12:33;;;;;;;14.20;10.65;;;;;;;17.69;100.00;101048.03;5114378;28;20418;-77
2023/09/03 02:15:13;;;;;;;14.60;10.80;;;;;;;17.72;100.00;101051.97;5114374;28;20019;-76
2023/09/03 02:17:38;;;;;;;15.95;10.45;;;;;;;17.72;100.00;101054.88;5114623;28;20103;-77
2023/09/03 02:20:06;;;;;;;15.45;10.77;;;;;;;17.71;100.00;101056.19;5114204;28;20111;-77
2023/09/03 02:22:34;;;;;;;15.45;10.20;;;;;;;17.71;100.00;101059.06;5115424;28;20482;-77
2023/09/03 02:25:00;;;;;;;16.92;10.52;;;;;;;17.69;100.00;101045.13;5115332;28;20067;-75
2023/09/03 02:27:26;;;;;;;13.55;10.85;;;;;;;17.69;100.00;101041.44;5115425;28;20547;-77
2023/09/03 02:29:54;;;;;;;15.40;11.00;;;;;;;17.69;100.00;101035.66;5115082;27;20392;-78
2023/09/03 02:32:21;;;;;;;17.27;11.15;;;;;;;17.65;100.00;101032.25;5115354;28;20034;-76
2023/09/03 02:34:47;;;;;;;15.73;12.18;;;;;;;17.60;100.00;101045.41;5113487;28;20040;-76
2023/09/03 02:37:12;;;;;;;16.58;10.98;;;;;;;17.53;100.00;101037.25;5096772;28;20160;-77
2023/09/03 02:39:38;;;;;;;15.43;11.30;;;;;;;17.49;100.00;101033.81;5114317;28;20127;-77
2023/09/03 02:42:04;;;;;;;17.20;12.13;;;;;;;17.42;100.00;101042.97;5114973;28;20027;-75
2023/09/03 02:44:38;;;;;;;16.83;11.57;;;;;;;17.39;100.00;101052.69;5115083;28;20035;-77
2023/09/03 02:47:06;;;;;;;17.38;11.90;;;;;;;17.32;100.00;101059.00;5115091;28;20023;-75
2023/09/03 02:49:31;;;;;;;15.27;11.55;;;;;;;17.23;100.00;101044.78;5113648;28;20097;-76
2023/09/03 02:51:57;;;;;;;16.67;11.48;;;;;;;17.18;100.00;101045.56;5114774;28;20059;-77
2023/09/03 02:54:24;;;;;;;15.57;11.63;;;;;;;17.13;100.00;101049.22;5113788;28;20512;-75
2023/09/03 02:56:49;;;;;;;15.70;12.05;;;;;;;17.05;100.00;101048.13;5115128;28;20407;-77
2023/09/03 02:59:15;;;;;;;17.48;11.95;;;;;;;16.99;100.00;101048.13;5113410;28;20019;-76
2023/09/03 03:01:42;;;;;;;15.13;12.35;;;;;;;16.96;100.00;101057.81;5114620;28;20063;-77
2023/09/03 03:04:08;;;;;;;16.05;11.65;;;;;;;16.94;100.00;101064.13;5114350;28;20031;-75
2023/09/03 03:06:35;;;;;;;16.02;12.50;;;;;;;16.91;100.00;101073.03;5113269;28;20023;-76
2023/09/03 03:09:04;;;;;;;17.30;12.10;;;;;;;16.87;100.00;101070.41;5114756;28;20023;-76
2023/09/03 03:11:31;;;;;;;15.60;11.93;;;;;;;16.69;100.00;101056.41;5114256;28;20035;-75
2023/09/03 03:14:05;;;;;;;16.63;12.50;;;;;;;16.78;100.00;101076.41;5114015;27;20029;-77
2023/09/03 03:16:33;;;;;;;15.10;11.60;;;;;;;16.75;100.00;101076.63;5112173;28;20023;-76
2023/09/03 03:19:17;;;;;;;17.33;12.20;;;;;;;16.70;100.00;101083.19;5112231;28;20069;-77
2023/09/03 03:21:44;;;;;;;17.85;12.68;;;;;;;16.63;100.00;101078.69;5112981;28;20027;-77
2023/09/03 03:24:11;;;;;;;18.90;12.20;;;;;;;16.57;100.00;101069.19;5113012;28;20465;-75
2023/09/03 03:26:37;;;;;;;17.40;12.82;;;;;;;16.60;100.00;101078.94;5112945;28;20058;-77
2023/09/03 03:29:02;;;;;;;19.30;13.00;;;;;;;16.59;100.00;101069.47;5094560;28;20044;-76
2023/09/03 03:31:34;;;;;;;21.60;13.10;;;;;;;16.52;100.00;101067.03;5113748;28;20023;-76
2023/09/03 03:34:05;;;;;;;17.83;12.57;;;;;;;16.29;100.00;101022.06;5113227;28;20027;-77
2023/09/03 03:36:31;;;;;;;18.15;11.32;;;;;;;16.54;100.00;101067.34;5113032;28;20034;-76
2023/09/03 03:38:56;;;;;;;18.05;12.30;;;;;;;16.50;100.00;101066.78;5112585;28;20041;-75
2023/09/03 03:41:25;;;;;;;18.17;12.20;;;;;;;16.53;100.00;101085.94;5111547;28;20019;-76
2023/09/03 03:43:51;;;;;;;18.90;12.02;;;;;;;16.51;100.00;101074.91;5113002;28;20027;-77
2023/09/03 03:46:20;;;;;;;17.75;12.30;;;;;;;16.53;100.00;101074.41;5094920;28;20032;-77
2023/09/03 03:48:47;;;;;;;15.93;11.27;;;;;;;16.46;100.00;101063.31;5113977;28;20020;-76
2023/09/03 03:51:14;;;;;;;18.40;12.35;;;;;;;16.49;100.00;101074.66;5114134;28;20024;-77
2023/09/03 03:53:40;;;;;;;18.00;12.95;;;;;;;16.49;100.00;101073.84;5112542;28;20019;-77
2023/09/03 03:56:07;;;;;;;18.90;12.80;;;;;;;16.45;100.00;101079.09;5112611;28;20236;-76
2023/09/03 03:58:35;;;;;;;21.70;12.48;;;;;;;16.43;100.00;101073.03;5113858;28;20020;-75
2023/09/03 04:01:01;;;;;;;20.48;12.95;;;;;;;16.43;100.00;101081.69;5096008;28;20081;-76
2023/09/03 04:03:27;;;;;;;19.45;12.85;;;;;;;16.43;100.00;101076.72;5113800;28;20110;-77
2023/09/03 04:05:58;;;;;;;19.60;12.20;;;;;;;16.31;100.00;101059.81;5100039;28;20503;-76
2023/09/03 04:08:30;;;;;;;22.60;13.20;;;;;;;16.43;100.00;101075.91;5099902;28;20027;-77
2023/09/03 04:11:00;;;;;;;20.23;13.25;;;;;;;16.41;100.00;101072.75;5116941;28;20028;-76
2023/09/03 04:13:26;;;;;;;19.30;12.95;;;;;;;16.41;100.00;101078.50;5116925;28;20031;-75
2023/09/03 04:15:53;;;;;;;18.33;12.23;;;;;;;16.38;100.00;101079.56;5099523;28;20042;-77
2023/09/03 04:18:18;;;;;;;19.27;13.07;;;;;;;16.34;100.00;101071.16;5117665;28;20402;-76
2023/09/03 04:20:44;;;;;;;18.05;12.45;;;;;;;16.32;100.00;101081.59;5117794;28;20023;-77
2023/09/03 04:23:09;;;;;;;16.65;12.32;;;;;;;16.31;100.00;101080.00;5116308;28;20028;-75
2023/09/03 04:25:34;;;;;;;19.00;13.57;;;;;;;16.32;100.00;101082.41;5116158;28;20024;-76
2023/09/03 04:28:00;;;;;;;22.15;13.93;;;;;;;16.34;100.00;101088.44;5117422;28;20028;-77
2023/09/03 04:30:25;;;;;;;18.83;13.05;;;;;;;16.37;100.00;101093.19;5117824;28;20051;-76
2023/09/03 04:32:51;;;;;;;19.27;13.25;;;;;;;16.39;100.00;101086.91;5117348;28;20373;-77
2023/09/03 04:35:16;;;;;;;18.45;12.98;;;;;;;16.41;100.00;101096.63;5116198;28;20049;-77
2023/09/03 04:37:42;;;;;;;17.77;12.27;;;;;;;16.47;100.00;101088.78;5117462;28;20020;-78
2023/09/03 04:40:08;;;;;;;15.77;12.35;;;;;;;16.56;100.00;101093.59;5116961;28;20377;-77
2023/09/03 04:42:34;;;;;;;17.73;12.65;;;;;;;16.53;100.00;101072.34;5115889;28;20094;-77
2023/09/03 04:44:59;;;;;;;16.23;11.88;;;;;;;16.65;100.00;101081.81;5117000;28;20548;-77
2023/09/03 04:47:25;;;;;;;16.75;11.68;;;;;;;16.71;100.00;101082.66;5099013;28;20064;-75
2023/09/03 04:49:50;;;;;;;16.50;11.63;;;;;;;16.74;100.00;101090.28;5117294;28;20023;-75
2023/09/03 04:52:16;;;;;;;17.85;11.88;;;;;;;16.73;100.00;101077.16;5117177;28;20491;-76
2023/09/03 04:54:41;;;;;;;15.50;11.52;;;;;;;16.79;100.00;101092.41;5116058;28;20046;-76
2023/09/03 04:57:08;;;;;;;19.17;12.75;;;;;;;16.82;100.00;101100.03;5115521;28;20041;-76
2023/09/03 04:59:35;;;;;;;17.90;13.88;;;;;;;16.85;100.00;101107.66;5117054;28;20019;-76
2023/09/03 05:02:01;;;;;;;17.77;12.52;;;;;;;16.91;100.00;101107.69;5116845;28;20031;-75
2023/09/03 05:04:28;;;;;;;15.93;11.68;;;;;;;16.97;100.00;101103.53;5117141;27;20028;-76
2023/09/03 05:06:55;;;;;;;18.10;12.02;;;;;;;17.07;100.00;101106.19;5116743;28;20038;-77
2023/09/03 05:09:21;;;;;;;15.30;11.15;;;;;;;17.16;100.00;101105.94;5116776;28;20530;-76
2023/09/03 05:11:48;;;;;;;15.48;10.80;;;;;;;17.25;100.00;101103.63;5116829;28;20074;-76
2023/09/03 05:14:14;;;;;;;17.27;11.85;;;;;;;17.33;100.00;101107.59;5117102;28;20059;-76
2023/09/03 05:16:40;;;;;;;16.73;12.25;;;;;;;17.47;100.00;101099.25;5115129;28;20075;-75
2023/09/03 05:19:07;;;;;;;15.52;11.13;;;;;;;17.58;100.00;101102.16;5116273;28;20118;-77
2023/09/03 05:21:35;;;;;;;18.58;11.82;;;;;;;17.68;100.00;101095.63;5116742;28;20112;-76
2023/09/03 05:24:01;;;;;;;13.23;10.68;;;;;;;17.78;100.00;101101.94;5116340;28;20016;-76
2023/09/03 05:26:34;;;;;;;16.50;11.32;;;;;;;17.88;100.00;101114.03;5116298;28;20039;-77
2023/09/03 05:29:01;;;;;;;20.75;11.30;;;;;;;17.94;100.00;101117.69;5116389;28;20027;-77
2023/09/03 05:31:27;;;;;;;17.48;11.05;;;;;;;18.01;100.00;101108.50;5116231;28;20107;-76
2023/09/03 05:34:07;;;;;;;13.52;10.55;;;;;;;18.05;100.00;101109.81;5116424;28;20106;-76
2023/09/03 05:36:34;;;;;;;13.45;10.60;;;;;;;18.03;100.00;101103.75;5116518;28;20046;-77
2023/09/03 05:39:00;;;;;;;13.80;10.48;;;;;;;18.12;100.00;101102.72;5115798;28;20176;-76
2023/09/03 05:41:26;;;;;;;15.07;10.50;;;;;;;18.15;100.00;101104.56;5116325;28;20023;-77
2023/09/03 05:43:55;;;;;;;15.30;11.05;;;;;;;18.15;100.00;101104.56;5114859;28;20380;-77
2023/09/03 05:46:22;;;;;;;13.18;10.68;;;;;;;18.13;100.00;101102.19;5116024;28;20027;-78
2023/09/03 05:48:54;;;;;;;14.82;10.40;;;;;;;18.23;100.00;101103.50;5097967;28;20023;-78
2023/09/03 05:51:20;;;;;;;15.90;10.40;;;;;;;18.30;100.00;101112.97;5116110;27;20031;-75
2023/09/03 05:53:46;;;;;;;14.35;10.38;;;;;;;18.38;100.00;101109.03;5116020;28;20114;-78
2023/09/03 05:56:12;;;;;;;16.85;10.48;;;;;;;18.47;100.00;101123.25;5116149;28;20099;-79
2023/09/03 05:58:38;;;;;;;13.05;10.13;;;;;;;18.56;100.00;101125.84;5115740;28;20192;-77
2023/09/03 06:01:09;;;;;;;13.52;9.52;;;;;;;18.67;100.00;101114.22;5114848;28;20085;-77
2023/09/03 06:03:37;;;;;;;13.57;9.02;;;;;;;18.80;100.00;101119.47;5114484;28;20510;-77
2023/09/03 06:06:06;;;;;;;15.27;11.10;;;;;;;18.92;100.00;101111.53;5097740;27;20035;-77
2023/09/03 06:08:53;;;;;;;11.25;9.52;;;;;;;19.06;100.00;101111.22;5115566;28;20080;-79
2023/09/03 06:11:20;;;;;;;15.32;9.80;;;;;;;19.24;100.00;101109.06;5115486;28;20404;-77
2023/09/03 06:13:45;;;;;;;17.80;10.60;;;;;;;19.32;100.00;101102.16;5114374;28;20035;-77
2023/09/03 06:16:15;;;;;;;12.55;9.45;;;;;;;19.49;100.00;101114.44;5115315;28;20046;-77
2023/09/03 06:18:41;;;;;;;11.15;9.10;;;;;;;19.65;100.00;101115.69;5115594;28;20051;-77
2023/09/03 06:21:08;;;;;;;12.93;9.52;;;;;;;19.81;100.00;101111.06;5115510;28;20047;-79
2023/09/03 06:23:35;;;;;;;10.10;8.52;;;;;;;20.05;100.00;101119.91;5114159;28;20077;-75
2023/09/03 06:26:02;;;;;;;10.75;9.25;;;;;;;20.25;100.00;101122.34;5115228;28;20092;-77
2023/09/03 06:28:28;;;;;;;14.50;9.95;;;;;;;20.54;100.00;101132.38;5114654;28;20380;-76
2023/09/03 06:30:57;;;;;;;11.45;8.52;;;;;;;20.83;100.00;101133.69;5114905;28;20044;-77
2023/09/03 06:33:22;;;;;;;10.32;8.23;;;;;;;21.29;100.00;101134.72;5114045;28;20023;-77
2023/09/03 06:35:49;;;;;;;8.70;7.63;;;;;;;21.87;100.00;101129.94;5115769;28;20031;-78
2023/09/03 06:38:15;;;;;;;12.27;8.45;;;;;;;22.51;100.00;101130.75;5115640;28;20024;-77
2023/09/03 06:40:40;;;;;;;9.68;7.32;;;;;;;23.20;100.00;101125.97;5114817;28;20044;-77
2023/09/03 06:43:06;;;;;;;9.20;7.82;;;;;;;23.80;100.00;101123.06;5114755;27;20503;-79
2023/09/03 06:45:46;;;;;;;8.00;7.20;;;;;;;24.33;100.00;101117.00;5114676;28;20034;-81
2023/09/03 06:48:13;;;;;;;8.43;7.55;;;;;;;24.67;100.00;101114.72;5114870;28;20051;-81
2023/09/03 06:50:41;;;;;;;8.70;7.75;;;;;;;25.12;100.00;101119.34;5113811;28;20027;-82
2023/09/03 06:53:07;;;;;;;11.15;8.10;;;;;;;25.41;100.00;101123.78;5114874;28;20055;-82
2023/09/03 06:55:32;;;;;;;8.35;7.18;;;;;;;25.59;100.00;101119.00;5114510;28;20055;-83
2023/09/03 06:57:58;;;;;;;9.95;7.55;;;;;;;25.56;100.00;101109.25;5114675;28;20457;-84
2023/09/03 07:00:23;;;;;;;10.88;7.05;;;;;;;25.69;100.00;101117.06;5113553;28;20482;-80
2023/09/03 07:02:49;;;;;;;9.02;7.35;;;;;;;25.78;100.00;101119.44;5114977;27;20096;-78
2023/09/03 07:05:16;;;;;;;10.25;7.15;;;;;;;25.92;100.00;101112.09;5112967;28;20035;-79
2023/09/03 07:07:42;;;;;;;10.48;6.57;;;;;;;26.20;100.00;101114.88;5114651;28;20038;-79
2023/09/03 07:10:08;;;;;;;7.13;6.38;;;;;;;26.50;100.00;101114.13;5113480;28;20169;-79
2023/09/03 07:12:34;;;;;;;7.43;6.50;;;;;;;26.77;100.00;101121.16;5114375;28;20027;-80
2023/09/03 07:15:00;;;;;;;8.18;6.47;;;;;;;26.96;100.00;101126.59;5114574;28;20046;-81
2023/09/03 07:17:27;;;;;;;7.13;6.43;;;;;;;27.06;100.00;101118.00;5096409;28;20040;-85
2023/09/03 07:19:57;;;;;;;9.93;6.05;;;;;;;27.18;100.00;101116.19;5115049;28;20117;-83
2023/09/03 07:22:22;;;;;;;8.15;7.22;;;;;;;27.21;100.00;101123.78;5114860;27;20034;-81
2023/09/03 07:24:52;;;;;;;7.22;6.10;;;;;;;27.10;100.00;101122.09;5114581;28;20023;-83
2023/09/03 07:27:19;;;;;;;7.90;6.65;;;;;;;27.09;100.00;101135.19;5113093;28;20465;-83
2023/09/03 07:29:45;;;;;;;7.13;5.88;;;;;;;27.19;100.00;101136.13;5096686;28;20042;-82
2023/09/03 07:32:11;;;;;;;6.25;5.65;;;;;;;27.50;100.00;101133.91;5112923;28;20028;-78
2023/09/03 07:34:38;;;;;;;9.00;6.05;;;;;;;28.08;100.00;101137.75;5114950;28;20042;-79
2023/09/03 07:37:04;;;;;;;6.90;5.57;;;;;;;28.64;100.00;101133.22;5115285;28;20039;-81
2023/09/03 07:39:31;;;;;;;10.02;5.28;;;;;;;29.29;100.00;101133.75;5114948;28;20563;-80
2023/09/03 07:41:57;;;;;;;6.38;5.70;;;;;;;29.91;100.00;101131.63;5116268;28;20027;-78
2023/09/03 07:44:24;;;;;;;6.35;5.45;;;;;;;30.29;100.00;101145.81;5114994;28;20046;-78
2023/09/03 07:46:51;;;;;;;7.35;5.45;;;;;;;30.51;100.00;101143.91;5115288;28;20031;-79
2023/09/03 07:49:17;;;;;;;8.05;5.45;;;;;;;30.86;100.00;101139.34;5113084;28;20039;-79
2023/09/03 07:51:42;;;;;;;6.38;5.22;;;;;;;31.38;100.00;101145.66;5097074;28;20027;-80
2023/09/03 07:54:09;;;;;;;6.32;5.03;;;;;;;31.72;97.94;101135.72;5114293;28;20072;-80
2023/09/03 07:56:36;;;;;;;6.57;4.57;;;;;;;32.07;98.71;101144.22;5114177;28;20031;-78
2023/09/03 07:59:05;;;;;;;9.95;5.45;;;;;;;32.56;100.00;101134.53;5113950;28;20043;-78
2023/09/03 08:01:30;;;;;;;7.07;5.38;;;;;;;33.03;89.77;101138.63;5112974;28;20111;-79
2023/09/03 08:03:56;;;;;;;6.25;4.25;;;;;;;33.17;88.86;101135.94;5114140;28;20169;-80
2023/09/03 08:06:22;;;;;;;4.95;4.45;;;;;;;33.15;88.85;101134.97;5114172;28;20027;-80
2023/09/03 08:08:53;;;;;;;6.88;4.28;;;;;;;32.92;86.43;101148.25;5114029;28;20024;-75
2023/09/03 08:11:21;;;;;;;7.15;4.78;;;;;;;32.56;81.85;101137.50;5113859;28;20032;-82
2023/09/03 08:13:50;;;;;;;4.97;4.47;;;;;;;32.15;86.07;101151.50;5112941;28;20484;-82
2023/09/03 08:16:24;;;;;;;5.43;4.20;;;;;;;31.92;86.90;101153.44;5112788;28;20047;-81
2023/09/03 08:18:51;;;;;;;6.60;3.63;;;;;;;31.99;89.58;101152.50;5113919;28;20051;-79
2023/09/03 08:21:16;;;;;;;4.82;3.72;;;;;;;32.43;87.14;101152.06;5113303;28;20400;-79
2023/09/03 08:23:44;;;;;;;6.43;4.25;;;;;;;32.89;84.28;101146.53;5113112;28;20048;-79
2023/09/03 08:26:10;;;;;;;7.03;3.47;;;;;;;33.21;76.44;101151.03;5113976;28;20483;-79
2023/09/03 08:28:36;;;;;;;5.18;3.60;;;;;;;32.91;72.27;101137.81;5112520;28;20028;-81
2023/09/03 08:31:16;;;;;;;6.78;3.30;;;;;;;32.53;76.34;101144.69;5113946;28;20077;-80
2023/09/03 08:33:43;;;;;;;9.48;4.43;;;;;;;32.18;78.19;101146.53;5113425;28;20066;-79
2023/09/03 08:36:08;;;;;;;6.82;3.50;;;;;;;31.94;84.34;101148.44;5113589;28;20461;-79
2023/09/03 08:38:33;;;;;;;6.22;4.03;;;;;;;32.00;86.45;101148.88;5112392;28;20035;-78
2023/09/03 08:41:00;;;;;;;7.03;3.42;;;;;;;32.05;78.93;101147.00;5113070;28;20477;-81
2023/09/03 08:43:29;;;;;;;4.93;3.10;;;;;;;31.97;82.30;101146.41;5112459;28;20030;-78
2023/09/03 08:46:01;;;;;;;6.28;4.00;;;;;;;31.97;80.18;101146.41;5113732;28;20039;-80
2023/09/03 08:48:27;;;;;;;3.65;3.05;;;;;;;31.72;81.34;101117.19;5112472;28;20779;-80
2023/09/03 08:51:01;;;;;;;5.53;2.95;;;;;;;31.68;77.13;101138.38;5115865;28;20072;-80
2023/09/03 08:53:28;;;;;;;3.42;2.88;;;;;;;31.27;80.32;101149.25;5116312;28;20031;-80
2023/09/03 08:55:54;;;;;;;4.20;3.30;;;;;;;30.80;82.36;101152.88;5117618;28;20030;-83
2023/09/03 08:58:19;;;;;;;4.32;3.15;;;;;;;30.37;84.08;101151.56;5117548;28;20102;-81
2023/09/03 09:00:45;;;;;;;3.75;3.30;;;;;;;29.96;85.38;101159.25;5116998;27;20599;-80
2023/09/03 09:03:13;;;;;;;4.32;3.17;;;;;;;29.54;89.80;101148.38;5116099;28;20503;-78
2023/09/03 09:05:45;;;;;;;4.30;3.22;;;;;;;29.00;93.38;101138.56;5099129;28;20036;-79
2023/09/03 09:08:20;;;;;;;6.00;3.17;;;;;;;28.61;96.08;101155.03;5115755;28;20027;-79
2023/09/03 09:10:56;;;;;;;5.72;3.45;;;;;;;27.97;98.39;101130.16;5115924;28;20031;-77
2023/09/03 09:13:24;;;;;;;4.22;3.25;;;;;;;27.81;100.00;101152.16;5098465;28;20027;-78
2023/09/03 09:15:51;;;;;;;3.70;3.15;;;;;;;27.57;100.00;101144.06;5115534;28;20028;-79
2023/09/03 09:18:17;;;;;;;6.05;3.15;;;;;;;27.69;100.00;101162.81;5115563;27;20027;-84
2023/09/03 09:20:44;;;;;;;3.40;2.90;;;;;;;27.80;100.00;101147.66;5132161;27;20080;-80
2023/09/03 09:23:11;;;;;;;5.30;3.60;;;;;;;27.92;100.00;101128.25;5115801;28;20031;-80
2023/09/03 09:25:40;;;;;;;4.63;3.85;;;;;;;28.11;100.00;101162.22;5115259;28;20040;-78
2023/09/03 09:28:12;;;;;;;4.20;3.20;;;;;;;28.06;100.00;101145.59;5115540;28;20032;-80
2023/09/03 09:30:54;;;;;;;3.33;3.03;;;;;;;28.18;100.00;101153.34;5116502;28;20023;-80
2023/09/03 09:33:49;;;;;;;3.92;3.45;;;;;;;28.30;100.00;101153.66;5115348;28;20036;-79
2023/09/03 09:36:17;;;;;;;5.78;3.30;;;;;;;28.32;100.00;101153.84;5115143;28;20480;-80
2023/09/03 09:38:44;;;;;;;4.57;3.28;;;;;;;28.21;100.00;101151.38;5116061;28;20023;-81
2023/09/03 09:41:37;;;;;;;5.03;3.38;;;;;;;27.90;100.00;101133.91;5118528;27;20039;-80
2023/09/03 09:44:13;;;;;;;4.55;3.40;;;;;;;27.83;100.00;101143.53;5128082;28;20032;-87
2023/09/03 09:46:47;;;;;;;5.15;3.42;;;;;;;27.67;100.00;101153.81;5112494;28;20053;-88
2023/09/03 09:49:14;;;;;;;6.00;3.40;;;;;;;27.50;100.00;101145.63;5117099;28;20031;-78
2023/09/03 09:51:40;;;;;;;3.95;2.90;;;;;;;27.37;100.00;101145.88;5116708;28;20066;-80
2023/09/03 09:54:05;;;;;;;3.97;2.80;;;;;;;27.32;100.00;101160.78;5116567;28;20463;-83
2023/09/03 09:56:36;;;;;;;5.50;3.45;;;;;;;27.13;100.00;101156.09;5117605;28;20379;-86
2023/09/03 09:59:03;;;;;;;5.47;3.33;;;;;;;27.16;100.00;101157.06;5116848;28;20032;-81
2023/09/03 10:01:43;;;;;;;3.25;2.95;;;;;;;27.22;100.00;101151.00;5115581;27;20034;-86
2023/09/03 10:04:10;;;;;;;3.90;3.53;;;;;;;27.31;100.00;101151.19;5116619;28;20145;-79
2023/09/03 10:06:38;;;;;;;4.80;3.30;;;;;;;27.47;100.00;101157.81;5115322;28;20035;-83
2023/09/03 10:09:03;;;;;;;4.63;3.67;;;;;;;27.53;100.00;101156.22;5115987;28;20038;-79
2023/09/03 10:11:28;;;;;;;11.10;3.50;;;;;;;27.48;100.00;101154.28;5115877;28;20452;-82
2023/09/03 10:13:55;;;;;;;3.40;3.08;;;;;;;27.46;100.00;101154.06;5115209;28;20031;-84
2023/09/03 10:16:41;;;;;;;5.65;3.30;;;;;;;27.33;100.00;101160.19;5124391;28;20034;-88
2023/09/03 10:19:11;;;;;;;5.43;3.42;;;;;;;27.12;100.00;101169.22;5124606;28;20047;-86
2023/09/03 10:21:39;;;;;;;5.20;3.80;;;;;;;27.07;100.00;101157.69;5101092;28;20483;-81
2023/09/03 10:24:08;;;;;;;3.97;3.28;;;;;;;27.05;100.00;101154.56;5119944;28;20115;-84
2023/09/03 10:26:38;;;;;;;4.72;3.40;;;;;;;27.13;100.00;101161.19;5114423;28;20114;-86
2023/09/03 10:29:15;;;;;;;4.17;3.17;;;;;;;27.18;100.00;101151.41;5097743;28;20384;-78
2023/09/03 10:31:41;;;;;;;3.72;2.90;;;;;;;27.29;100.00;101156.06;5114308;28;20027;-81
2023/09/03 10:34:09;;;;;;;6.93;3.03;;;;;;;27.27;100.00;101150.78;5114279;28;20472;-80
2023/09/03 10:36:34;;;;;;;3.90;3.08;;;;;;;27.16;100.00;101154.13;5097337;28;20483;-82
2023/09/03 10:39:22;;;;;;;5.15;3.55;;;;;;;27.06;100.00;101156.91;5096663;28;20024;-79
2023/09/03 10:42:14;;;;;;;5.43;2.92;;;;;;;27.01;100.00;101148.31;5114720;28;20035;-79
2023/09/03 10:44:44;;;;;;;4.75;3.17;;;;;;;27.21;100.00;101140.66;5113830;28;20365;-81
2023/09/03 10:47:17;;;;;;;5.22;2.92;;;;;;;27.62;100.00;101151.88;5101043;28;20042;-78
2023/09/03 10:49:45;;;;;;;3.05;2.55;;;;;;;27.79;100.00;101152.00;5107803;28;20384;-80
2023/09/03 10:52:26;;;;;;;3.40;2.60;;;;;;;27.79;100.00;101151.22;5099224;28;20036;-82
2023/09/03 10:55:10;;;;;;;3.88;2.97;;;;;;;27.73;97.00;101162.41;5093183;28;20435;-76
2023/09/03 10:57:35;;;;;;;4.70;2.33;;;;;;;27.58;99.50;101166.19;5094514;28;20069;-78
2023/09/03 11:00:05;;;;;;;4.75;2.60;;;;;;;27.43;99.74;101172.91;5092436;28;20121;-78
2023/09/03 11:02:40;;;;;;;5.68;2.33;;;;;;;27.25;97.83;101162.34;5095143;28;20485;-83
2023/09/03 11:05:29;;;;;;;3.45;2.08;;;;;;;27.13;99.78;101161.97;5094574;28;20115;-87
2023/09/03 11:08:33;;;;;;;2.67;2.42;;;;;;;27.05;99.95;101161.22;5094187;28;20096;-83
2023/09/03 11:11:02;;;;;;;5.25;2.50;;;;;;;26.77;97.51;101165.16;5095331;28;20027;-82
2023/09/03 11:13:29;;;;;;;2.35;2.13;;;;;;;26.37;100.00;101158.25;5096131;28;20032;-87
2023/09/03 11:15:55;;;;;;;4.05;2.47;;;;;;;26.19;100.00;101156.50;5077434;28;20044;-86
2023/09/03 11:18:27;;;;;;;3.10;2.80;;;;;;;26.05;100.00;101169.72;5095885;28;20024;-86
2023/09/03 11:20:55;;;;;;;4.07;3.15;;;;;;;25.95;100.00;101166.56;5078383;28;20484;-86